sensor_id;sensor_type;location;lat;lon;timestamp;pressure;altitude;pressure_sealevel;temperature;humidity
32733;BME280;11867;51.198;11.966;2023-09-08T00:00:34;100963.47;;;16.95;100.00
32733;BME280;11867;51.198;11.966;2023-09-08T00:01:58;100962.19;;;17.15;98.11
32733;BME280;11867;51.198;11.966;2023-09-08T00:03:21;100962.59;;;17.22;97.14
32733;BME280;11867;51.198;11.966;2023-09-08T00:04:45;100961.13;;;17.39;95.91
32733;BME280;11867;51.198;11.966;2023-09-08T00:06:07;100965.91;;;16.97;98.26
32733;BME280;11867;51.198;11.966;2023-09-08T00:07:31;100952.69;;;17.21;96.61
32733;BME280;11867;51.198;11.966;2023-09-08T00:08:53;100963.97;;;16.69;99.45
32733;BME280;11867;51.198;11.966;2023-09-08T00:10:16;100965.38;;;16.67;100.00
32733;BME280;11867;51.198;11.966;2023-09-08T00:11:38;100958.06;;;16.90;98.98
32733;BME280;11867;51.198;11.966;2023-09-08T00:13:03;100960.47;;;16.64;99.95
32733;BME280;11867;51.198;11.966;2023-09-08T00:14:26;100958.75;;;16.68;100.00
32733;BME280;11867;51.198;11.966;2023-09-08T00:15:50;100962.44;;;16.63;100.00
32733;BME280;11867;51.198;11.966;2023-09-08T00:17:12;100961.63;;;16.63;100.00
32733;BME280;11867;51.198;11.966;2023-09-08T00:18:35;100959.78;;;16.44;100.00
32733;BME280;11867;51.198;11.966;2023-09-08T00:19:57;100956.75;;;15.99;100.00
32733;BME280;11867;51.198;11.966;2023-09-08T00:21:21;100955.69;;;15.81;100.00
32733;BME280;11867;51.198;11.966;2023-09-08T00:22:43;100958.13;;;16.16;100.00
32733;BME280;11867;51.198;11.966;2023-09-08T00:24:07;100954.50;;;16.48;100.00
32733;BME280;11867;51.198;11.966;2023-09-08T00:25:29;100955.31;;;16.62;100.00
32733;BME280;11867;51.198;11.966;2023-09-08T00:26:52;100953.66;;;16.33;100.00
32733;BME280;11867;51.198;11.966;2023-09-08T00:28:15;100946.91;;;16.53;100.00
32733;BME280;11867;51.198;11.966;2023-09-08T00:29:40;100951.34;;;15.94;100.00
32733;BME280;11867;51.198;11.966;2023-09-08T00:31:02;100950.25;;;16.09;100.00
32733;BME280;11867;51.198;11.966;2023-09-08T00:32:29;100944.59;;;16.47;100.00
32733;BME280;11867;51.198;11.966;2023-09-08T00:33:52;100944.78;;;16.37;100.00
32733;BME280;11867;51.198;11.966;2023-09-08T00:35:17;100955.91;;;16.31;100.00
32733;BME280;11867;51.198;11.966;2023-09-08T00:36:40;100964.78;;;15.63;100.00
32733;BME280;11867;51.198;11.966;2023-09-08T00:38:04;100957.19;;;15.17;100.00
32733;BME280;11867;51.198;11.966;2023-09-08T00:39:26;100950.44;;;14.90;100.00
32733;BME280;11867;51.198;11.966;2023-09-08T00:40:52;100947.03;;;14.98;100.00
32733;BME280;11867;51.198;11.966;2023-09-08T00:42:14;100955.22;;;15.22;100.00
32733;BME280;11867;51.198;11.966;2023-09-08T00:43:38;100957.44;;;15.39;100.00
32733;BME280;11867;51.198;11.966;2023-09-08T00:45:02;100954.47;;;15.54;100.00
32733;BME280;11867;51.198;11.966;2023-09-08T00:46:25;100951.31;;;15.80;100.00
32733;BME280;11867;51.198;11.966;2023-09-08T00:47:50;100952.50;;;16.07;100.00
32733;BME280;11867;51.198;11.966;2023-09-08T00:49:14;100957.78;;;15.51;100.00
32733;BME280;11867;51.198;11.966;2023-09-08T00:50:41;100959.66;;;15.18;100.00
32733;BME280;11867;51.198;11.966;2023-09-08T00:52:05;100951.72;;;15.17;100.00
32733;BME280;11867;51.198;11.966;2023-09-08T00:53:28;100956.53;;;15.06;100.00
32733;BME280;11867;51.198;11.966;2023-09-08T00:54:52;100956.63;;;15.01;100.00
32733;BME280;11867;51.198;11.966;2023-09-08T00:56:15;100947.47;;;14.86;100.00
32733;BME280;11867;51.198;11.966;2023-09-08T00:57:40;100954.81;;;14.91;100.00
32733;BME280;11867;51.198;11.966;2023-09-08T00:59:04;100961.22;;;15.24;100.00
32733;BME280;11867;51.198;11.966;2023-09-08T01:00:29;100959.13;;;15.54;100.00
32733;BME280;11867;51.198;11.966;2023-09-08T01:01:54;100956.25;;;15.26;100.00
32733;BME280;11867;51.198;11.966;2023-09-08T01:03:20;100956.63;;;15.39;100.00
32733;BME280;11867;51.198;11.966;2023-09-08T01:04:44;100943.69;;;15.20;100.00
32733;BME280;11867;51.198;11.966;2023-09-08T01:06:09;100950.63;;;15.18;100.00
32733;BME280;11867;51.198;11.966;2023-09-08T01:07:32;100952.75;;;15.02;100.00
32733;BME280;11867;51.198;11.966;2023-09-08T01:08:57;100954.47;;;15.17;100.00
32733;BME280;11867;51.198;11.966;2023-09-08T01:10:19;100949.63;;;15.08;100.00
32733;BME280;11867;51.198;11.966;2023-09-08T01:11:44;100958.03;;;15.36;100.00
32733;BME280;11867;51.198;11.966;2023-09-08T01:13:07;100957.13;;;15.60;100.00
32733;BME280;11867;51.198;11.966;2023-09-08T01:14:33;100950.78;;;15.78;100.00
32733;BME280;11867;51.198;11.966;2023-09-08T01:16:02;100961.97;;;15.30;100.00
32733;BME280;11867;51.198;11.966;2023-09-08T01:17:26;100950.59;;;15.37;100.00
32733;BME280;11867;51.198;11.966;2023-09-08T01:18:51;100957.56;;;15.29;100.00
32733;BME280;11867;51.198;11.966;2023-09-08T01:20:19;100963.06;;;15.10;100.00
32733;BME280;11867;51.198;11.966;2023-09-08T01:22:07;100959.00;;;15.26;100.00
32733;BME280;11867;51.198;11.966;2023-09-08T01:23:48;100952.75;;;15.59;100.00
32733;BME280;11867;51.198;11.966;2023-09-08T01:25:21;100955.72;;;15.05;100.00
32733;BME280;11867;51.198;11.966;2023-09-08T01:26:44;100953.03;;;14.57;100.00
32733;BME280;11867;51.198;11.966;2023-09-08T01:28:08;100959.88;;;14.54;100.00
32733;BME280;11867;51.198;11.966;2023-09-08T01:29:33;100950.75;;;14.88;100.00
32733;BME280;11867;51.198;11.966;2023-09-08T01:31:07;100955.63;;;14.91;100.00
32733;BME280;11867;51.198;11.966;2023-09-08T01:32:32;100950.28;;;15.00;100.00
32733;BME280;11867;51.198;11.966;2023-09-08T01:33:57;100953.22;;;15.09;100.00
32733;BME280;11867;51.198;11.966;2023-09-08T01:35:29;100944.94;;;14.90;100.00
32733;BME280;11867;51.198;11.966;2023-09-08T01:36:53;100947.25;;;14.83;100.00
32733;BME280;11867;51.198;11.966;2023-09-08T01:38:17;100945.53;;;14.87;100.00
32733;BME280;11867;51.198;11.966;2023-09-08T01:39:39;100953.94;;;15.14;100.00
32733;BME280;11867;51.198;11.966;2023-09-08T01:41:04;100950.59;;;15.56;100.00
32733;BME280;11867;51.198;11.966;2023-09-08T01:42:26;100950.78;;;15.78;100.00
32733;BME280;11867;51.198;11.966;2023-09-08T01:43:50;100948.56;;;15.80;100.00
32733;BME280;11867;51.198;11.966;2023-09-08T01:45:15;100950.91;;;15.73;100.00
32733;BME280;11867;51.198;11.966;2023-09-08T01:46:52;100936.59;;;15.90;100.00
32733;BME280;11867;51.198;11.966;2023-09-08T01:48:19;100937.75;;;16.17;98.30
32733;BME280;11867;51.198;11.966;2023-09-08T01:49:43;100946.63;;;16.27;97.64
32733;BME280;11867;51.198;11.966;2023-09-08T01:51:05;100947.19;;;15.97;98.36
32733;BME280;11867;51.198;11.966;2023-09-08T01:52:28;100955.66;;;16.14;97.77
32733;BME280;11867;51.198;11.966;2023-09-08T01:53:51;100943.47;;;16.34;96.47
32733;BME280;11867;51.198;11.966;2023-09-08T01:55:18;100934.28;;;16.39;95.79
32733;BME280;11867;51.198;11.966;2023-09-08T01:56:42;100941.53;;;16.34;95.63
32733;BME280;11867;51.198;11.966;2023-09-08T01:58:05;100947.22;;;16.24;96.48
32733;BME280;11867;51.198;11.966;2023-09-08T01:59:28;100941.38;;;16.12;97.05
32733;BME280;11867;51.198;11.966;2023-09-08T02:00:53;100952.16;;;15.94;98.14
32733;BME280;11867;51.198;11.966;2023-09-08T02:02:28;100952.50;;;15.74;99.36
32733;BME280;11867;51.198;11.966;2023-09-08T02:03:50;100946.06;;;15.65;99.69
32733;BME280;11867;51.198;11.966;2023-09-08T02:05:14;100948.59;;;15.23;100.00
32733;BME280;11867;51.198;11.966;2023-09-08T02:06:36;100948.56;;;14.85;100.00
32733;BME280;11867;51.198;11.966;2023-09-08T02:08:00;100942.41;;;14.75;100.00
32733;BME280;11867;51.198;11.966;2023-09-08T02:09:30;100943.38;;;14.84;100.00
32733;BME280;11867;51.198;11.966;2023-09-08T02:10:54;100936.44;;;14.43;100.00
32733;BME280;11867;51.198;11.966;2023-09-08T02:12:18;100938.72;;;14.07;100.00
32733;BME280;11867;51.198;11.966;2023-09-08T02:13:45;100942.97;;;14.23;100.00
32733;BME280;11867;51.198;11.966;2023-09-08T02:15:08;100940.47;;;13.98;100.00
32733;BME280;11867;51.198;11.966;2023-09-08T02:16:33;100939.06;;;14.29;100.00
32733;BME280;11867;51.198;11.966;2023-09-08T02:17:59;100940.69;;;14.30;100.00
32733;BME280;11867;51.198;11.966;2023-09-08T02:19:28;100940.19;;;14.28;100.00
32733;BME280;11867;51.198;11.966;2023-09-08T02:20:51;100936.38;;;14.24;100.00
32733;BME280;11867;51.198;11.966;2023-09-08T02:22:16;100940.84;;;14.15;100.00
32733;BME280;11867;51.198;11.966;2023-09-08T02:23:40;100931.00;;;14.38;100.00
32733;BME280;11867;51.198;11.966;2023-09-08T02:25:06;100935.13;;;14.84;100.00
32733;BME280;11867;51.198;11.966;2023-09-08T02:26:29;100933.16;;;14.89;100.00
32733;BME280;11867;51.198;11.966;2023-09-08T02:27:56;100931.72;;;15.11;100.00
32733;BME280;11867;51.198;11.966;2023-09-08T02:29:19;100920.53;;;15.26;100.00
32733;BME280;11867;51.198;11.966;2023-09-08T02:30:43;100928.25;;;15.05;100.00
32733;BME280;11867;51.198;11.966;2023-09-08T02:32:07;100936.66;;;14.95;100.00
32733;BME280;11867;51.198;11.966;2023-09-08T02:33:39;100937.41;;;15.20;100.00
32733;BME280;11867;51.198;11.966;2023-09-08T02:35:02;100931.00;;;15.43;100.00
32733;BME280;11867;51.198;11.966;2023-09-08T02:36:26;100926.19;;;15.68;98.96
32733;BME280;11867;51.198;11.966;2023-09-08T02:37:48;100920.91;;;15.71;98.33
32733;BME280;11867;51.198;11.966;2023-09-08T02:39:12;100922.78;;;15.76;97.99
32733;BME280;11867;51.198;11.966;2023-09-08T02:40:35;100929.97;;;15.01;100.00
32733;BME280;11867;51.198;11.966;2023-09-08T02:41:59;100932.00;;;14.47;100.00
32733;BME280;11867;51.198;11.966;2023-09-08T02:43:26;100928.56;;;14.37;100.00
32733;BME280;11867;51.198;11.966;2023-09-08T02:44:52;100939.25;;;14.62;100.00
32733;BME280;11867;51.198;11.966;2023-09-08T02:46:14;100924.16;;;14.84;100.00
32733;BME280;11867;51.198;11.966;2023-09-08T02:47:38;100929.38;;;15.04;100.00
32733;BME280;11867;51.198;11.966;2023-09-08T02:49:01;100937.81;;;14.89;100.00
32733;BME280;11867;51.198;11.966;2023-09-08T02:50:26;100929.81;;;14.92;100.00
32733;BME280;11867;51.198;11.966;2023-09-08T02:51:49;100931.69;;;15.16;100.00
32733;BME280;11867;51.198;11.966;2023-09-08T02:53:12;100931.38;;;15.37;100.00
32733;BME280;11867;51.198;11.966;2023-09-08T02:54:48;100928.00;;;15.59;99.13
32733;BME280;11867;51.198;11.966;2023-09-08T02:56:11;100932.81;;;15.67;98.44
32733;BME280;11867;51.198;11.966;2023-09-08T02:57:34;100916.84;;;15.69;97.96
32733;BME280;11867;51.198;11.966;2023-09-08T02:58:59;100924.59;;;15.48;98.14
32733;BME280;11867;51.198;11.966;2023-09-08T03:00:21;100929.56;;;15.65;97.93
32733;BME280;11867;51.198;11.966;2023-09-08T03:01:45;100928.00;;;15.40;98.25
32733;BME280;11867;51.198;11.966;2023-09-08T03:03:10;100932.72;;;14.53;100.00
32733;BME280;11867;51.198;11.966;2023-09-08T03:04:33;100929.94;;;14.34;100.00
32733;BME280;11867;51.198;11.966;2023-09-08T03:05:56;100938.53;;;14.27;100.00
32733;BME280;11867;51.198;11.966;2023-09-08T03:07:25;100930.38;;;14.70;100.00
32733;BME280;11867;51.198;11.966;2023-09-08T03:08:47;100927.03;;;14.73;100.00
32733;BME280;11867;51.198;11.966;2023-09-08T03:10:11;100928.16;;;14.91;100.00
32733;BME280;11867;51.198;11.966;2023-09-08T03:11:34;100930.78;;;15.02;100.00
32733;BME280;11867;51.198;11.966;2023-09-08T03:12:59;100924.72;;;15.05;100.00
32733;BME280;11867;51.198;11.966;2023-09-08T03:14:23;100934.34;;;14.59;100.00
32733;BME280;11867;51.198;11.966;2023-09-08T03:15:46;100920.22;;;14.71;100.00
32733;BME280;11867;51.198;11.966;2023-09-08T03:17:10;100926.56;;;14.90;100.00
32733;BME280;11867;51.198;11.966;2023-09-08T03:18:38;100926.75;;;14.75;100.00
32733;BME280;11867;51.198;11.966;2023-09-08T03:20:00;100922.19;;;14.17;100.00
32733;BME280;11867;51.198;11.966;2023-09-08T03:21:23;100921.19;;;14.08;100.00
32733;BME280;11867;51.198;11.966;2023-09-08T03:22:46;100927.41;;;14.13;100.00
32733;BME280;11867;51.198;11.966;2023-09-08T03:24:08;100922.38;;;14.50;100.00
32733;BME280;11867;51.198;11.966;2023-09-08T03:25:31;100919.97;;;14.19;100.00
32733;BME280;11867;51.198;11.966;2023-09-08T03:26:53;100923.34;;;14.11;100.00
32733;BME280;11867;51.198;11.966;2023-09-08T03:28:17;100912.56;;;13.61;100.00
32733;BME280;11867;51.198;11.966;2023-09-08T03:29:41;100916.97;;;13.62;100.00
32733;BME280;11867;51.198;11.966;2023-09-08T03:31:05;100918.00;;;13.32;100.00
32733;BME280;11867;51.198;11.966;2023-09-08T03:32:27;100926.56;;;13.15;100.00
32733;BME280;11867;51.198;11.966;2023-09-08T03:33:51;100922.09;;;12.90;100.00
32733;BME280;11867;51.198;11.966;2023-09-08T03:35:13;100914.41;;;12.92;100.00
32733;BME280;11867;51.198;11.966;2023-09-08T03:36:38;100913.09;;;13.24;100.00
32733;BME280;11867;51.198;11.966;2023-09-08T03:38:01;100912.31;;;13.58;100.00
32733;BME280;11867;51.198;11.966;2023-09-08T03:39:23;100915.81;;;13.68;100.00
32733;BME280;11867;51.198;11.966;2023-09-08T03:40:46;100912.47;;;14.01;100.00
32733;BME280;11867;51.198;11.966;2023-09-08T03:42:08;100911.38;;;14.26;100.00
32733;BME280;11867;51.198;11.966;2023-09-08T03:43:31;100910.81;;;14.29;100.00
32733;BME280;11867;51.198;11.966;2023-09-08T03:44:55;100908.41;;;14.46;100.00
32733;BME280;11867;51.198;11.966;2023-09-08T03:46:18;100915.06;;;14.16;100.00
32733;BME280;11867;51.198;11.966;2023-09-08T03:47:40;100906.72;;;13.73;100.00
32733;BME280;11867;51.198;11.966;2023-09-08T03:49:04;100908.63;;;14.02;100.00
32733;BME280;11867;51.198;11.966;2023-09-08T03:50:27;100900.28;;;14.36;100.00
32733;BME280;11867;51.198;11.966;2023-09-08T03:51:49;100911.44;;;14.45;100.00
32733;BME280;11867;51.198;11.966;2023-09-08T03:53:12;100899.19;;;14.61;100.00
32733;BME280;11867;51.198;11.966;2023-09-08T03:54:34;100911.81;;;14.62;100.00
32733;BME280;11867;51.198;11.966;2023-09-08T03:55:58;100908.00;;;14.82;100.00
32733;BME280;11867;51.198;11.966;2023-09-08T03:57:21;100907.69;;;14.84;100.00
32733;BME280;11867;51.198;11.966;2023-09-08T03:58:44;100910.16;;;14.37;100.00
32733;BME280;11867;51.198;11.966;2023-09-08T04:00:08;100908.28;;;14.08;100.00
32733;BME280;11867;51.198;11.966;2023-09-08T04:01:33;100903.16;;;14.02;100.00
32733;BME280;11867;51.198;11.966;2023-09-08T04:02:55;100909.09;;;14.09;100.00
32733;BME280;11867;51.198;11.966;2023-09-08T04:04:19;100896.38;;;13.94;100.00
32733;BME280;11867;51.198;11.966;2023-09-08T04:05:42;100912.38;;;13.82;100.00
32733;BME280;11867;51.198;11.966;2023-09-08T04:07:05;100911.59;;;14.05;100.00
32733;BME280;11867;51.198;11.966;2023-09-08T04:08:27;100914.69;;;13.99;100.00
32733;BME280;11867;51.198;11.966;2023-09-08T04:09:50;100903.25;;;13.91;100.00
32733;BME280;11867;51.198;11.966;2023-09-08T04:11:12;100910.41;;;14.17;100.00
32733;BME280;11867;51.198;11.966;2023-09-08T04:12:35;100912.47;;;14.49;100.00
32733;BME280;11867;51.198;11.966;2023-09-08T04:13:57;100916.69;;;14.65;100.00
32733;BME280;11867;51.198;11.966;2023-09-08T04:15:22;100911.72;;;14.67;100.00
32733;BME280;11867;51.198;11.966;2023-09-08T04:16:44;100913.09;;;14.46;100.00
32733;BME280;11867;51.198;11.966;2023-09-08T04:18:07;100909.97;;;14.58;100.00
32733;BME280;11867;51.198;11.966;2023-09-08T04:19:29;100908.88;;;14.53;100.00
32733;BME280;11867;51.198;11.966;2023-09-08T04:20:52;100912.38;;;14.59;100.00
32733;BME280;11867;51.198;11.966;2023-09-08T04:22:15;100906.03;;;14.64;100.00
32733;BME280;11867;51.198;11.966;2023-09-08T04:23:38;100909.59;;;14.64;100.00
32733;BME280;11867;51.198;11.966;2023-09-08T04:25:00;100908.19;;;14.67;100.00
32733;BME280;11867;51.198;11.966;2023-09-08T04:26:23;100911.50;;;14.40;100.00
32733;BME280;11867;51.198;11.966;2023-09-08T04:27:45;100914.19;;;14.21;100.00
32733;BME280;11867;51.198;11.966;2023-09-08T04:29:09;100912.00;;;13.93;100.00
32733;BME280;11867;51.198;11.966;2023-09-08T04:30:33;100913.50;;;14.10;100.00
32733;BME280;11867;51.198;11.966;2023-09-08T04:31:56;100916.34;;;14.00;100.00
32733;BME280;11867;51.198;11.966;2023-09-08T04:33:18;100906.28;;;13.90;100.00
32733;BME280;11867;51.198;11.966;2023-09-08T04:34:42;100903.03;;;13.53;100.00
32733;BME280;11867;51.198;11.966;2023-09-08T04:36:04;100914.41;;;13.37;100.00
32733;BME280;11867;51.198;11.966;2023-09-08T04:37:27;100904.50;;;13.75;100.00
32733;BME280;11867;51.198;11.966;2023-09-08T04:38:49;100903.16;;;14.02;100.00
32733;BME280;11867;51.198;11.966;2023-09-08T04:40:12;100895.97;;;13.47;100.00
32733;BME280;11867;51.198;11.966;2023-09-08T04:41:34;100906.56;;;13.88;100.00
32733;BME280;11867;51.198;11.966;2023-09-08T04:42:58;100907.13;;;14.15;100.00
32733;BME280;11867;51.198;11.966;2023-09-08T04:44:20;100897.56;;;14.12;100.00
32733;BME280;11867;51.198;11.966;2023-09-08T04:45:44;100900.19;;;14.22;100.00
32733;BME280;11867;51.198;11.966;2023-09-08T04:47:07;100902.56;;;14.53;100.00
32733;BME280;11867;51.198;11.966;2023-09-08T04:48:30;100909.44;;;14.50;100.00
32733;BME280;11867;51.198;11.966;2023-09-08T04:49:52;100903.03;;;14.36;100.00
32733;BME280;11867;51.198;11.966;2023-09-08T04:51:15;100903.44;;;14.48;100.00
32733;BME280;11867;51.198;11.966;2023-09-08T04:52:37;100895.41;;;14.57;100.00
32733;BME280;11867;51.198;11.966;2023-09-08T04:54:00;100898.63;;;14.64;99.54
32733;BME280;11867;51.198;11.966;2023-09-08T04:55:23;100897.88;;;13.52;100.00
32733;BME280;11867;51.198;11.966;2023-09-08T04:56:46;100901.34;;;13.63;100.00
32733;BME280;11867;51.198;11.966;2023-09-08T04:58:08;100893.09;;;13.63;100.00
32733;BME280;11867;51.198;11.966;2023-09-08T04:59:31;100893.88;;;13.68;100.00
32733;BME280;11867;51.198;11.966;2023-09-08T05:00:56;100899.69;;;13.62;100.00
32733;BME280;11867;51.198;11.966;2023-09-08T05:02:19;100892.75;;;13.40;100.00
32733;BME280;11867;51.198;11.966;2023-09-08T05:03:41;100900.59;;;13.52;100.00
32733;BME280;11867;51.198;11.966;2023-09-08T05:05:05;100895.84;;;13.92;100.00
32733;BME280;11867;51.198;11.966;2023-09-08T05:06:27;100906.78;;;14.21;100.00
32733;BME280;11867;51.198;11.966;2023-09-08T05:07:50;100901.38;;;14.16;100.00
32733;BME280;11867;51.198;11.966;2023-09-08T05:09:15;100897.28;;;13.84;100.00
32733;BME280;11867;51.198;11.966;2023-09-08T05:10:38;100907.69;;;14.11;100.00
32733;BME280;11867;51.198;11.966;2023-09-08T05:12:00;100906.53;;;14.42;100.00
32733;BME280;11867;51.198;11.966;2023-09-08T05:13:23;100901.38;;;14.64;100.00
32733;BME280;11867;51.198;11.966;2023-09-08T05:14:52;100905.44;;;14.86;98.63
32733;BME280;11867;51.198;11.966;2023-09-08T05:16:20;100906.00;;;15.07;97.29
32733;BME280;11867;51.198;11.966;2023-09-08T05:17:58;100904.78;;;15.13;96.59
32733;BME280;11867;51.198;11.966;2023-09-08T05:19:22;100908.00;;;15.20;96.29
32733;BME280;11867;51.198;11.966;2023-09-08T05:20:47;100914.16;;;15.31;95.89
32733;BME280;11867;51.198;11.966;2023-09-08T05:22:10;100907.41;;;15.04;98.12
32733;BME280;11867;51.198;11.966;2023-09-08T05:23:32;100905.78;;;15.03;97.96
32733;BME280;11867;51.198;11.966;2023-09-08T05:24:55;100902.03;;;14.94;98.99
32733;BME280;11867;51.198;11.966;2023-09-08T05:26:18;100906.25;;;14.67;99.50
32733;BME280;11867;51.198;11.966;2023-09-08T05:27:41;100904.53;;;14.28;100.00
32733;BME280;11867;51.198;11.966;2023-09-08T05:29:03;100906.75;;;13.68;100.00
32733;BME280;11867;51.198;11.966;2023-09-08T05:30:26;100911.38;;;13.38;100.00
32733;BME280;11867;51.198;11.966;2023-09-08T05:31:50;100904.69;;;13.15;100.00
32733;BME280;11867;51.198;11.966;2023-09-08T05:33:17;100904.38;;;13.17;100.00
32733;BME280;11867;51.198;11.966;2023-09-08T05:34:39;100899.91;;;13.31;100.00
32733;BME280;11867;51.198;11.966;2023-09-08T05:36:02;100905.78;;;13.83;100.00
32733;BME280;11867;51.198;11.966;2023-09-08T05:37:24;100906.47;;;13.99;100.00
32733;BME280;11867;51.198;11.966;2023-09-08T05:38:47;100903.69;;;13.75;100.00
32733;BME280;11867;51.198;11.966;2023-09-08T05:40:09;100906.91;;;13.52;100.00
32733;BME280;11867;51.198;11.966;2023-09-08T05:41:32;100905.03;;;13.77;100.00
32733;BME280;11867;51.198;11.966;2023-09-08T05:42:55;100906.84;;;14.16;100.00
32733;BME280;11867;51.198;11.966;2023-09-08T05:44:18;100905.31;;;13.76;100.00
32733;BME280;11867;51.198;11.966;2023-09-08T05:45:40;100905.41;;;13.65;100.00
32733;BME280;11867;51.198;11.966;2023-09-08T05:47:05;100909.28;;;13.64;100.00
32733;BME280;11867;51.198;11.966;2023-09-08T05:48:27;100910.00;;;13.41;100.00
32733;BME280;11867;51.198;11.966;2023-09-08T06:56:38;100895.31;;;17.91;89.43
32733;BME280;11867;51.198;11.966;2023-09-08T06:58:08;100916.84;;;18.11;89.68
32733;BME280;11867;51.198;11.966;2023-09-08T06:59:31;100910.13;;;18.04;90.06
32733;BME280;11867;51.198;11.966;2023-09-08T07:00:56;100915.88;;;18.16;89.88
32733;BME280;11867;51.198;11.966;2023-09-08T07:02:37;100918.34;;;18.26;89.32
32733;BME280;11867;51.198;11.966;2023-09-08T07:04:05;100916.00;;;18.51;88.36
32733;BME280;11867;51.198;11.966;2023-09-08T07:05:41;100900.72;;;18.45;87.50
32733;BME280;11867;51.198;11.966;2023-09-08T07:07:19;100914.44;;;18.67;86.95
32733;BME280;11867;51.198;11.966;2023-09-08T07:09:10;100917.22;;;18.76;87.86
32733;BME280;11867;51.198;11.966;2023-09-08T07:11:02;100909.22;;;18.66;89.21
32733;BME280;11867;51.198;11.966;2023-09-08T07:13:13;100918.72;;;18.33;90.83
32733;BME280;11867;51.198;11.966;2023-09-08T07:14:40;100914.19;;;18.38;90.69
32733;BME280;11867;51.198;11.966;2023-09-08T07:16:11;100917.78;;;18.47;90.26
32733;BME280;11867;51.198;11.966;2023-09-08T07:17:37;100920.44;;;18.69;89.34
32733;BME280;11867;51.198;11.966;2023-09-08T07:23:35;100921.34;;;19.22;85.80
32733;BME280;11867;51.198;11.966;2023-09-08T07:25:00;100922.31;;;19.26;86.35
32733;BME280;11867;51.198;11.966;2023-09-08T07:26:25;100922.50;;;19.12;86.45
32733;BME280;11867;51.198;11.966;2023-09-08T07:28:02;100924.59;;;19.07;87.59
32733;BME280;11867;51.198;11.966;2023-09-08T07:29:25;100925.41;;;18.99;89.04
32733;BME280;11867;51.198;11.966;2023-09-08T07:30:49;100926.25;;;19.17;87.92
32733;BME280;11867;51.198;11.966;2023-09-08T07:32:12;100925.09;;;19.35;86.64
32733;BME280;11867;51.198;11.966;2023-09-08T07:33:36;100922.31;;;19.52;86.33
32733;BME280;11867;51.198;11.966;2023-09-08T07:35:41;100922.50;;;19.47;87.08
32733;BME280;11867;51.198;11.966;2023-09-08T07:37:04;100926.56;;;19.50;86.80
32733;BME280;11867;51.198;11.966;2023-09-08T07:38:26;100924.91;;;19.66;86.17
32733;BME280;11867;51.198;11.966;2023-09-08T07:39:50;100920.50;;;19.91;83.40
32733;BME280;11867;51.198;11.966;2023-09-08T07:41:15;100923.25;;;19.91;83.16
32733;BME280;11867;51.198;11.966;2023-09-08T07:42:44;100925.41;;;19.77;84.73
32733;BME280;11867;51.198;11.966;2023-09-08T07:44:06;100922.94;;;19.84;84.23
32733;BME280;11867;51.198;11.966;2023-09-08T07:45:33;100919.94;;;20.07;83.35
32733;BME280;11867;51.198;11.966;2023-09-08T07:46:55;100910.78;;;20.15;82.95
32733;BME280;11867;51.198;11.966;2023-09-08T07:48:19;100908.25;;;20.40;81.84
32733;BME280;11867;51.198;11.966;2023-09-08T07:49:45;100908.56;;;20.47;80.52
32733;BME280;11867;51.198;11.966;2023-09-08T07:51:13;100910.47;;;20.46;80.87
32733;BME280;11867;51.198;11.966;2023-09-08T07:52:36;100905.84;;;20.29;82.35
32733;BME280;11867;51.198;11.966;2023-09-08T07:54:00;100903.16;;;20.12;83.50
32733;BME280;11867;51.198;11.966;2023-09-08T07:55:25;100902.97;;;20.26;83.06
32733;BME280;11867;51.198;11.966;2023-09-08T07:56:50;100905.78;;;20.47;81.59
32733;BME280;11867;51.198;11.966;2023-09-08T07:58:13;100907.81;;;20.67;80.58
32733;BME280;11867;51.198;11.966;2023-09-08T07:59:37;100904.78;;;20.81;80.06
32733;BME280;11867;51.198;11.966;2023-09-08T08:01:00;100904.50;;;20.74;80.28
32733;BME280;11867;51.198;11.966;2023-09-08T08:02:24;100900.25;;;20.98;78.59
32733;BME280;11867;51.198;11.966;2023-09-08T08:03:48;100903.16;;;21.01;78.71
32733;BME280;11867;51.198;11.966;2023-09-08T08:05:13;100900.31;;;21.10;77.89
32733;BME280;11867;51.198;11.966;2023-09-08T08:06:37;100902.91;;;21.15;78.54
32733;BME280;11867;51.198;11.966;2023-09-08T08:08:01;100898.69;;;21.30;77.35
32733;BME280;11867;51.198;11.966;2023-09-08T08:09:23;100905.66;;;21.36;77.29
32733;BME280;11867;51.198;11.966;2023-09-08T08:10:50;100899.25;;;21.44;78.20
32733;BME280;11867;51.198;11.966;2023-09-08T08:12:12;100905.31;;;21.59;78.42
32733;BME280;11867;51.198;11.966;2023-09-08T08:13:37;100900.25;;;21.61;77.67
32733;BME280;11867;51.198;11.966;2023-09-08T08:15:01;100904.06;;;21.68;76.85
32733;BME280;11867;51.198;11.966;2023-09-08T08:16:24;100898.78;;;21.75;76.87
32733;BME280;11867;51.198;11.966;2023-09-08T08:17:47;100908.06;;;21.92;76.42
32733;BME280;11867;51.198;11.966;2023-09-08T08:19:11;100906.81;;;22.02;76.25
32733;BME280;11867;51.198;11.966;2023-09-08T08:20:36;100907.75;;;22.06;76.44
32733;BME280;11867;51.198;11.966;2023-09-08T08:22:03;100904.41;;;22.12;75.29
32733;BME280;11867;51.198;11.966;2023-09-08T08:23:26;100902.00;;;22.23;76.91
32733;BME280;11867;51.198;11.966;2023-09-08T08:24:49;100908.03;;;22.25;77.45